Time;durP1;ratioP1;P1;durP2;ratioP2;P2;SDS_P1;SDS_P2;PMS_P1;PMS_P2;Temp;Humidity;BMP_temperature;BMP_pressure;BME280_temperature;BME280_humidity;BME280_pressure;Samples;Min_cycle;Max_cycle;Signal;HPM_P1;HPM_P2
2021/07/24 00:01:38;;;;;;;3.17;1.80;;;29.60;43.20;;;;;;5026415;28;20482;-28
2021/07/24 00:04:10;;;;;;;1.40;1.30;;;29.70;43.40;;;;;;5022455;28;20479;-32
2021/07/24 00:06:48;;;;;;;2.00;1.80;;;29.60;44.50;;;;;;5006441;28;20434;-27
2021/07/24 00:09:19;;;;;;;2.30;1.80;;;29.60;45.10;;;;;;5019807;28;20451;-27
2021/07/24 00:11:50;;;;;;;1.70;1.60;;;29.70;44.80;;;;;;5026227;28;20511;-26
2021/07/24 00:14:20;;;;;;;1.83;1.70;;;29.50;45.00;;;;;;5024912;28;20507;-26
2021/07/24 00:16:53;;;;;;;4.33;1.47;;;29.40;45.50;;;;;;5025590;28;20477;-26
2021/07/24 00:19:24;;;;;;;1.67;1.57;;;29.40;45.50;;;;;;5018313;28;20526;-26
2021/07/24 00:21:55;;;;;;;1.83;1.73;;;29.30;46.00;;;;;;5018098;28;20590;-26
2021/07/24 00:24:26;;;;;;;1.60;1.50;;;29.30;46.20;;;;;;5019093;28;20481;-26
2021/07/24 00:26:57;;;;;;;1.30;1.20;;;29.20;46.30;;;;;;5012101;28;20491;-26
2021/07/24 00:29:28;;;;;;;2.03;1.60;;;29.10;46.70;;;;;;5015384;28;20450;-25
2021/07/24 00:32:01;;;;;;;2.27;1.77;;;29.00;47.40;;;;;;5020737;28;20509;-26
2021/07/24 00:34:32;;;;;;;2.20;1.50;;;29.10;47.90;;;;;;5010805;28;20553;-27
2021/07/24 00:37:03;;;;;;;1.50;1.40;;;29.10;46.90;;;;;;5018927;28;20454;-26
2021/07/24 00:39:34;;;;;;;1.77;1.10;;;29.10;47.20;;;;;;5015231;28;20471;-26
2021/07/24 00:42:14;;;;;;;1.60;1.37;;;28.80;48.20;;;;;;5015049;28;20450;-28
2021/07/24 00:44:48;;;;;;;1.73;1.43;;;28.80;49.00;;;;;;5015431;28;20485;-26
2021/07/24 00:47:22;;;;;;;2.20;1.50;;;28.80;48.20;;;;;;5013545;28;20463;-26
2021/07/24 00:49:55;;;;;;;2.20;1.40;;;28.80;49.00;;;;;;5011211;28;20802;-26
2021/07/24 00:52:26;;;;;;;1.67;1.57;;;28.70;47.80;;;;;;5005440;28;20960;-26
2021/07/24 00:54:57;;;;;;;1.67;1.30;;;28.60;47.30;;;;;;5017771;28;20512;-25
2021/07/24 00:57:28;;;;;;;1.43;1.33;;;28.50;48.40;;;;;;5023417;28;20479;-26
2021/07/24 00:59:59;;;;;;;1.50;1.40;;;28.50;49.70;;;;;;5016962;28;20492;-25
2021/07/24 01:02:31;;;;;;;1.33;1.03;;;28.40;49.90;;;;;;5031138;28;20485;-26
2021/07/24 01:05:05;;;;;;;1.70;1.10;;;28.30;50.30;;;;;;5030210;28;20649;-26
2021/07/24 01:07:37;;;;;;;1.13;1.03;;;28.40;50.60;;;;;;5038115;28;20440;-26
2021/07/24 01:10:10;;;;;;;1.67;1.03;;;28.20;51.10;;;;;;5012229;28;20469;-26
2021/07/24 01:12:53;;;;;;;1.20;1.10;;;28.20;51.30;;;;;;5009489;28;20513;-26
2021/07/24 01:15:24;;;;;;;1.73;1.60;;;28.30;50.60;;;;;;5004387;28;20526;-26
2021/07/24 01:17:58;;;;;;;1.57;1.47;;;28.20;50.90;;;;;;5009378;28;20461;-26
2021/07/24 01:20:30;;;;;;;1.90;1.23;;;28.10;51.30;;;;;;5020991;28;20469;-25
2021/07/24 01:23:03;;;;;;;4.27;3.93;;;28.00;51.90;;;;;;5014972;28;20514;-26
2021/07/24 01:25:34;;;;;;;3.10;2.80;;;28.00;50.70;;;;;;5018965;28;20514;-27
2021/07/24 01:28:05;;;;;;;2.47;2.27;;;28.00;51.50;;;;;;5021345;28;20479;-26
2021/07/24 01:30:36;;;;;;;2.23;1.77;;;27.90;52.50;;;;;;5021373;28;20511;-27
2021/07/24 01:33:07;;;;;;;6.00;5.60;;;27.90;53.20;;;;;;5024009;28;20454;-27
2021/07/24 01:35:54;;;;;;;1.50;1.40;;;27.90;53.20;;;;;;5008883;28;20548;-27
2021/07/24 01:38:27;;;;;;;1.27;1.17;;;27.90;52.30;;;;;;5024412;28;20452;-27
2021/07/24 01:40:58;;;;;;;1.83;1.10;;;27.90;51.80;;;;;;5018517;28;20443;-26
2021/07/24 01:43:29;;;;;;;1.43;1.20;;;27.80;52.20;;;;;;5023632;28;21019;-27
2021/07/24 01:46:00;;;;;;;6.70;1.70;;;27.70;53.10;;;;;;5023264;28;20456;-27
2021/07/24 01:48:35;;;;;;;1.33;1.23;;;27.70;53.80;;;;;;5006909;28;20460;-27
2021/07/24 01:54:03;;;;;;;1.60;1.40;;;27.50;54.50;;;;;;5016414;28;20547;-27
2021/07/24 01:56:37;;;;;;;1.83;1.20;;;27.60;54.70;;;;;;5016474;28;20451;-27
2021/07/24 01:59:09;;;;;;;1.83;1.20;;;27.50;54.80;;;;;;5006115;28;20499;-26
2021/07/24 02:01:40;;;;;;;1.43;1.20;;;27.40;54.00;;;;;;5022975;28;20455;-27
2021/07/24 02:04:17;;;;;;;1.40;1.03;;;27.40;54.80;;;;;;5016919;28;20448;-27
2021/07/24 02:06:48;;;;;;;1.20;1.20;;;27.30;55.20;;;;;;5014831;28;20447;-27
2021/07/24 02:09:21;;;;;;;2.80;2.13;;;27.30;55.40;;;;;;5016109;28;20475;-27
2021/07/24 02:11:53;;;;;;;1.60;1.50;;;27.30;56.00;;;;;;5020997;28;20530;-27
2021/07/24 02:14:24;;;;;;;1.87;1.50;;;27.20;55.80;;;;;;5004358;28;20484;-26
2021/07/24 02:16:55;;;;;;;1.63;1.20;;;27.20;56.00;;;;;;5005454;28;20789;-27
2021/07/24 02:19:26;;;;;;;1.93;1.43;;;27.20;56.40;;;;;;5022794;28;22064;-27
2021/07/24 02:21:57;;;;;;;3.27;1.60;;;27.10;56.30;;;;;;5022084;28;20450;-27
2021/07/24 02:24:30;;;;;;;3.20;2.90;;;27.00;56.80;;;;;;5014880;28;20455;-26
2021/07/24 02:27:01;;;;;;;19.27;17.80;;;26.90;57.20;;;;;;5024103;28;20442;-27
2021/07/24 02:29:32;;;;;;;17.90;16.03;;;26.90;57.90;;;;;;5008507;28;20457;-27
2021/07/24 02:32:03;;;;;;;5.20;3.67;;;26.80;58.30;;;;;;5023498;28;20505;-27
2021/07/24 02:34:34;;;;;;;2.53;2.30;;;26.80;58.40;;;;;;5022966;28;20485;-27
2021/07/24 02:37:06;;;;;;;6.67;6.27;;;26.80;58.40;;;;;;5008561;28;20466;-28
2021/07/24 02:39:38;;;;;;;21.20;18.23;;;26.80;58.90;;;;;;5018308;28;20435;-27
2021/07/24 02:42:28;;;;;;;4.30;4.00;;;26.70;59.20;;;;;;5012155;28;20443;-28
2021/07/24 02:45:00;;;;;;;2.00;1.90;;;26.60;59.60;;;;;;5014383;28;20452;-27
2021/07/24 02:47:31;;;;;;;2.63;1.37;;;26.50;60.00;;;;;;5014856;28;20511;-27
2021/07/24 02:50:02;;;;;;;2.30;1.67;;;26.50;60.40;;;;;;5004116;28;20480;-28
2021/07/24 02:52:33;;;;;;;2.00;1.80;;;26.50;60.90;;;;;;5005593;28;20508;-27
2021/07/24 02:55:07;;;;;;;1.87;1.77;;;26.40;61.40;;;;;;5012662;28;20542;-27
2021/07/24 02:57:38;;;;;;;1.60;1.50;;;26.30;62.20;;;;;;5019044;28;20977;-29
2021/07/24 03:00:09;;;;;;;1.83;1.73;;;26.30;62.80;;;;;;5016363;28;20546;-27
2021/07/24 03:02:41;;;;;;;2.17;1.70;;;26.30;63.50;;;;;;5012278;28;20497;-28
2021/07/24 03:05:13;;;;;;;2.00;1.73;;;26.10;64.50;;;;;;5023253;28;20456;-27
2021/07/24 03:07:44;;;;;;;2.77;1.80;;;26.10;64.60;;;;;;5022037;28;20450;-27
2021/07/24 03:10:17;;;;;;;2.20;2.00;;;26.10;65.40;;;;;;5022265;28;20458;-27
2021/07/24 03:12:48;;;;;;;1.50;1.40;;;26.00;65.70;;;;;;5020314;28;20440;-27
2021/07/24 03:15:19;;;;;;;1.83;1.73;;;26.00;66.20;;;;;;5016908;28;20475;-27
2021/07/24 03:17:50;;;;;;;1.70;1.60;;;25.90;67.30;;;;;;5016684;28;20463;-27
2021/07/24 03:20:21;;;;;;;1.90;1.80;;;25.80;68.10;;;;;;5011587;28;20483;-27
2021/07/24 03:22:52;;;;;;;1.60;1.50;;;25.80;68.90;;;;;;5013064;28;20482;-27
2021/07/24 03:25:24;;;;;;;1.80;1.70;;;25.70;69.90;;;;;;5014365;28;20447;-27
2021/07/24 03:27:55;;;;;;;1.70;1.60;;;25.60;72.10;;;;;;5020288;28;20767;-28
2021/07/24 03:30:26;;;;;;;1.70;1.60;;;25.50;72.60;;;;;;5013548;28;20461;-28
2021/07/24 03:32:57;;;;;;;1.97;1.60;;;25.30;72.80;;;;;;5024922;28;20453;-28
2021/07/24 03:35:28;;;;;;;2.13;1.93;;;25.30;74.10;;;;;;5023059;28;20481;-27
2021/07/24 03:38:04;;;;;;;2.37;2.17;;;25.10;74.00;;;;;;5016794;28;20816;-28
2021/07/24 03:40:42;;;;;;;2.40;2.20;;;25.00;75.60;;;;;;5015582;28;20981;-28
2021/07/24 03:43:13;;;;;;;2.70;1.70;;;25.00;75.60;;;;;;5017781;28;20481;-28
2021/07/24 03:45:45;;;;;;;2.20;2.10;;;24.90;76.90;;;;;;5007696;28;20447;-28
2021/07/24 03:48:16;;;;;;;3.47;1.63;;;24.80;76.80;;;;;;5015713;28;20880;-27
2021/07/24 03:50:48;;;;;;;1.70;1.60;;;24.80;77.70;;;;;;5018532;28;20478;-27
2021/07/24 03:53:18;;;;;;;1.90;1.80;;;24.70;77.60;;;;;;5006607;28;20545;-28
2021/07/24 03:55:51;;;;;;;2.07;1.87;;;24.70;78.40;;;;;;5015834;28;20482;-27
2021/07/24 03:58:22;;;;;;;1.70;1.60;;;24.60;79.00;;;;;;5014837;28;20451;-28
2021/07/24 04:00:53;;;;;;;1.67;1.53;;;24.60;79.40;;;;;;5006592;28;20474;-28
2021/07/24 04:03:25;;;;;;;1.90;1.80;;;24.50;80.60;;;;;;5009432;28;20484;-28
2021/07/24 04:05:56;;;;;;;1.60;1.50;;;24.40;81.60;;;;;;5014202;28;20455;-27
2021/07/24 04:08:28;;;;;;;1.90;1.80;;;24.40;81.00;;;;;;5020594;28;20469;-27
2021/07/24 04:11:00;;;;;;;3.20;1.50;;;24.30;81.20;;;;;;5019119;28;20474;-26
2021/07/24 04:13:32;;;;;;;2.27;2.10;;;24.30;81.40;;;;;;5016271;28;20446;-26
2021/07/24 04:16:03;;;;;;;1.83;1.73;;;24.20;82.70;;;;;;5017199;28;20487;-27
2021/07/24 04:18:35;;;;;;;2.70;2.13;;;24.20;83.30;;;;;;5019844;28;20447;-26
2021/07/24 04:21:06;;;;;;;1.90;1.70;;;24.10;83.80;;;;;;5018252;28;20447;-27
2021/07/24 04:23:37;;;;;;;1.80;1.70;;;24.10;84.10;;;;;;5012460;28;20451;-28
2021/07/24 04:26:10;;;;;;;2.20;2.00;;;24.00;85.10;;;;;;5015365;28;20459;-27
2021/07/24 04:28:41;;;;;;;2.03;1.90;;;24.00;85.30;;;;;;5014912;28;20437;-27
2021/07/24 04:31:14;;;;;;;2.20;1.90;;;23.90;85.40;;;;;;5017653;28;20452;-28
2021/07/24 04:33:46;;;;;;;2.40;1.77;;;23.90;86.30;;;;;;5014381;28;20457;-27
2021/07/24 04:36:17;;;;;;;4.17;2.03;;;23.80;87.00;;;;;;5016003;28;20568;-28
2021/07/24 04:38:47;;;;;;;2.90;1.77;;;23.70;87.80;;;;;;5017354;28;20469;-28
2021/07/24 04:41:23;;;;;;;2.13;1.87;;;23.70;89.00;;;;;;5015673;28;20454;-28
2021/07/24 04:43:54;;;;;;;2.17;2.07;;;23.60;89.90;;;;;;5013500;28;20487;-28
2021/07/24 04:46:25;;;;;;;2.57;1.83;;;23.50;90.30;;;;;;5005846;28;20486;-27
2021/07/24 04:48:56;;;;;;;1.93;1.83;;;23.50;90.40;;;;;;5020818;28;20458;-27
2021/07/24 04:51:29;;;;;;;2.07;1.90;;;23.40;90.90;;;;;;5024052;28;20457;-27
2021/07/24 04:54:00;;;;;;;2.37;1.77;;;23.40;91.00;;;;;;5017366;28;20455;-28
2021/07/24 04:56:34;;;;;;;1.70;1.60;;;23.40;91.30;;;;;;5015982;28;20569;-27
2021/07/24 04:59:07;;;;;;;1.97;1.70;;;23.30;91.70;;;;;;5009447;28;20477;-27
2021/07/24 05:01:38;;;;;;;2.93;1.83;;;23.40;91.70;;;;;;5022486;28;20528;-28
2021/07/24 05:04:09;;;;;;;2.50;1.83;;;23.20;92.50;;;;;;5024965;28;20466;-28
2021/07/24 05:06:40;;;;;;;2.27;2.10;;;23.20;92.80;;;;;;5023905;28;20831;-27
2021/07/24 05:09:11;;;;;;;2.17;1.97;;;23.10;93.30;;;;;;5021943;28;20450;-27
2021/07/24 05:11:44;;;;;;;1.90;1.50;;;23.10;93.80;;;;;;5005354;28;20550;-27
2021/07/24 05:14:15;;;;;;;1.77;1.67;;;23.10;94.10;;;;;;5008687;28;20439;-27
2021/07/24 05:16:46;;;;;;;1.93;1.80;;;23.00;94.50;;;;;;5017138;28;20505;-26
2021/07/24 05:19:17;;;;;;;1.87;1.77;;;23.00;94.70;;;;;;5023117;28;20450;-27
2021/07/24 05:21:48;;;;;;;2.57;1.77;;;22.90;95.10;;;;;;5023115;28;20436;-27
2021/07/24 05:24:19;;;;;;;2.50;2.07;;;22.90;95.50;;;;;;5023868;28;20454;-26
2021/07/24 05:26:51;;;;;;;1.90;1.53;;;22.80;96.00;;;;;;5023560;28;20774;-27
2021/07/24 05:29:22;;;;;;;2.00;1.90;;;22.70;96.70;;;;;;5007806;28;20533;-26
2021/07/24 05:31:53;;;;;;;4.57;1.80;;;22.60;97.20;;;;;;5024012;28;20540;-28
2021/07/24 05:34:24;;;;;;;1.93;1.80;;;22.60;97.70;;;;;;5023043;28;20474;-27
2021/07/24 05:36:55;;;;;;;1.97;1.87;;;22.60;98.00;;;;;;5022583;28;20481;-27
2021/07/24 05:39:26;;;;;;;2.07;1.53;;;22.50;98.30;;;;;;5018553;28;20958;-27
2021/07/24 05:41:59;;;;;;;2.23;2.00;;;22.50;98.60;;;;;;5016206;28;20553;-28
2021/07/24 05:44:31;;;;;;;1.77;1.67;;;22.50;99.00;;;;;;5013137;28;20507;-27
2021/07/24 05:47:02;;;;;;;2.00;1.77;;;22.40;99.30;;;;;;5011580;28;20847;-27
2021/07/24 05:49:35;;;;;;;2.70;1.90;;;22.30;99.80;;;;;;5012662;28;20528;-27
2021/07/24 05:52:08;;;;;;;1.80;1.70;;;22.30;99.90;;;;;;5018028;28;20493;-27
2021/07/24 05:54:40;;;;;;;2.13;1.97;;;22.20;99.90;;;;;;5022471;28;20447;-27
2021/07/24 05:57:12;;;;;;;1.97;1.87;;;22.20;99.90;;;;;;5022192;28;20509;-27
2021/07/24 05:59:43;;;;;;;1.97;1.87;;;22.20;99.90;;;;;;5012992;28;20493;-27
2021/07/24 06:02:15;;;;;;;2.97;2.00;;;22.10;99.90;;;;;;5018077;28;20449;-27
2021/07/24 06:04:47;;;;;;;2.60;1.90;;;22.10;99.90;;;;;;5016679;28;20557;-27
2021/07/24 06:07:18;;;;;;;1.83;1.73;;;22.00;99.90;;;;;;5008150;28;20489;-27
2021/07/24 06:09:49;;;;;;;2.53;2.33;;;22.00;99.90;;;;;;5013324;28;20430;-27
2021/07/24 06:12:22;;;;;;;3.30;1.80;;;21.90;99.90;;;;;;5004151;28;20451;-27
2021/07/24 06:14:53;;;;;;;2.20;2.00;;;21.80;99.90;;;;;;5016746;28;20465;-27
2021/07/24 06:17:24;;;;;;;2.10;2.00;;;21.80;99.90;;;;;;5020554;28;20489;-27
2021/07/24 06:19:55;;;;;;;2.50;2.13;;;21.80;99.90;;;;;;5022602;28;20472;-27
2021/07/24 06:22:26;;;;;;;1.50;1.40;;;21.80;99.90;;;;;;5013227;28;20505;-27
2021/07/24 06:24:57;;;;;;;2.20;2.00;;;21.70;99.90;;;;;;5022148;28;20472;-27
2021/07/24 06:27:29;;;;;;;2.07;1.87;;;21.70;99.90;;;;;;5005282;28;20877;-27
2021/07/24 06:30:00;;;;;;;1.83;1.70;;;21.70;99.90;;;;;;5018184;28;20744;-27
2021/07/24 06:32:32;;;;;;;2.17;2.00;;;21.60;99.90;;;;;;5023258;28;20981;-27
2021/07/24 06:35:03;;;;;;;4.17;1.80;;;21.50;99.90;;;;;;5022509;28;20462;-26
2021/07/24 06:37:34;;;;;;;2.10;1.90;;;21.50;99.90;;;;;;5021212;28;20494;-26
2021/07/24 06:40:06;;;;;;;2.33;2.10;;;21.50;99.90;;;;;;5017495;28;20507;-26
2021/07/24 06:42:39;;;;;;;1.90;1.80;;;21.50;99.90;;;;;;5022924;28;20445;-27
2021/07/24 06:45:11;;;;;;;2.30;2.10;;;21.40;99.90;;;;;;5017024;28;20438;-27
2021/07/24 06:47:42;;;;;;;3.00;1.93;;;21.40;99.90;;;;;;5020441;28;20450;-26
2021/07/24 06:50:14;;;;;;;2.30;2.10;;;21.40;99.90;;;;;;5021447;28;20416;-26
2021/07/24 06:52:45;;;;;;;4.20;2.50;;;21.30;99.90;;;;;;5007565;28;20457;-26
2021/07/24 06:55:16;;;;;;;1.83;1.70;;;21.30;99.90;;;;;;5017565;28;20454;-27
2021/07/24 06:57:48;;;;;;;1.83;1.73;;;21.30;99.90;;;;;;5010615;28;20457;-27
2021/07/24 07:00:20;;;;;;;2.23;2.03;;;21.20;99.90;;;;;;5003226;28;20474;-27
2021/07/24 07:02:50;;;;;;;2.40;2.17;;;21.20;99.90;;;;;;5022881;28;20456;-26
2021/07/24 07:05:22;;;;;;;3.10;2.40;;;21.20;99.90;;;;;;5020219;28;20429;-27
2021/07/24 07:07:53;;;;;;;2.10;1.83;;;21.10;99.90;;;;;;5026442;28;20436;-27
2021/07/24 07:10:24;;;;;;;2.13;1.63;;;21.00;99.90;;;;;;5026142;28;20424;-26
2021/07/24 07:13:00;;;;;;;2.57;2.37;;;21.00;99.90;;;;;;5029562;28;20454;-27
2021/07/24 07:15:31;;;;;;;2.03;1.87;;;20.90;99.90;;;;;;5020899;28;20429;-27
2021/07/24 07:18:02;;;;;;;1.90;1.80;;;20.90;99.90;;;;;;5026453;28;20490;-27
2021/07/24 07:20:33;;;;;;;2.10;1.97;;;20.90;99.90;;;;;;5026030;28;20460;-27
2021/07/24 07:23:04;;;;;;;2.43;2.23;;;20.80;99.90;;;;;;5022981;28;20505;-27
2021/07/24 07:25:35;;;;;;;2.20;2.00;;;20.80;99.90;;;;;;5010113;28;20443;-27
2021/07/24 07:28:09;;;;;;;2.20;2.10;;;20.70;99.90;;;;;;5016458;28;20433;-27
2021/07/24 07:30:39;;;;;;;1.87;1.77;;;20.70;99.90;;;;;;5025649;28;20454;-27
2021/07/24 07:33:10;;;;;;;2.13;1.93;;;20.60;99.90;;;;;;5026312;28;20483;-27
2021/07/24 07:35:42;;;;;;;1.93;1.83;;;20.60;99.90;;;;;;5028500;28;20539;-26
2021/07/24 07:38:12;;;;;;;2.33;2.13;;;20.60;99.90;;;;;;5028540;28;20536;-27
2021/07/24 07:40:43;;;;;;;2.67;2.43;;;20.60;99.90;;;;;;5012052;28;20554;-26
2021/07/24 07:43:16;;;;;;;2.13;2.03;;;20.50;99.90;;;;;;5028366;28;20509;-26
2021/07/24 07:45:47;;;;;;;2.30;2.10;;;20.50;99.90;;;;;;5022817;28;20520;-26
2021/07/24 07:48:19;;;;;;;2.03;1.93;;;20.40;99.90;;;;;;5021742;28;20458;-27
2021/07/24 07:50:50;;;;;;;1.70;1.60;;;20.30;99.90;;;;;;5022136;28;20454;-27
2021/07/24 07:53:24;;;;;;;1.80;1.50;;;20.30;99.90;;;;;;5023778;28;20463;-27
2021/07/24 07:55:56;;;;;;;2.37;2.17;;;20.30;99.90;;;;;;5022118;28;20456;-27
2021/07/24 07:58:28;;;;;;;2.73;2.23;;;20.20;99.90;;;;;;5009631;28;20502;-26
2021/07/24 08:00:59;;;;;;;2.20;2.00;;;20.20;99.90;;;;;;5020962;28;20429;-26
2021/07/24 08:03:30;;;;;;;3.67;2.20;;;20.10;99.90;;;;;;5018248;28;20489;-27
2021/07/24 08:06:02;;;;;;;2.40;2.20;;;20.10;99.90;;;;;;5027797;28;20463;-26
2021/07/24 08:08:33;;;;;;;2.27;1.80;;;20.10;99.90;;;;;;5016783;28;20496;-27
2021/07/24 08:11:03;;;;;;;2.60;2.10;;;20.00;99.90;;;;;;5012120;28;20495;-27
2021/07/24 08:13:36;;;;;;;2.37;2.10;;;20.00;99.90;;;;;;5028774;28;20442;-26
2021/07/24 08:16:15;;;;;;;1.97;1.87;;;20.00;99.90;;;;;;5026870;28;20485;-26
2021/07/24 08:18:46;;;;;;;2.43;2.20;;;20.00;99.90;;;;;;5019860;28;20509;-26
2021/07/24 08:21:17;;;;;;;3.07;2.40;;;19.90;99.90;;;;;;5008536;28;21248;-26
2021/07/24 08:23:48;;;;;;;2.20;2.00;;;19.90;99.90;;;;;;5014497;28;20451;-27
2021/07/24 08:26:19;;;;;;;3.40;2.07;;;19.90;99.90;;;;;;5023310;28;20457;-27
2021/07/24 08:28:54;;;;;;;3.17;1.87;;;19.80;99.90;;;;;;5006160;28;20461;-27
2021/07/24 08:31:25;;;;;;;2.40;2.00;;;19.80;99.90;;;;;;5015262;28;20454;-27
2021/07/24 08:33:56;;;;;;;4.27;2.83;;;19.70;99.90;;;;;;5015570;28;20456;-27
2021/07/24 08:36:27;;;;;;;2.77;2.37;;;19.70;99.90;;;;;;5022477;28;20458;-27
2021/07/24 08:38:59;;;;;;;6.20;2.27;;;19.60;99.90;;;;;;5021567;28;20949;-27
2021/07/24 08:41:30;;;;;;;2.70;2.40;;;19.60;99.90;;;;;;5010602;28;20455;-27
2021/07/24 08:44:21;;;;;;;2.47;2.27;;;19.60;99.90;;;;;;5005306;28;20457;-27
2021/07/24 08:46:52;;;;;;;2.90;2.00;;;19.60;99.90;;;;;;5011728;28;20469;-27
2021/07/24 08:49:23;;;;;;;2.33;2.13;;;19.60;99.90;;;;;;5024954;28;20473;-27
2021/07/24 08:51:57;;;;;;;4.57;2.20;;;19.60;99.90;;;;;;5009766;28;20451;-27
2021/07/24 08:54:27;;;;;;;2.57;2.37;;;19.50;99.90;;;;;;5021872;28;20935;-27
2021/07/24 08:57:00;;;;;;;2.80;2.40;;;19.50;99.90;;;;;;5024167;28;20473;-27
2021/07/24 08:59:33;;;;;;;2.40;2.20;;;19.50;99.90;;;;;;5014419;28;20490;-27
2021/07/24 09:02:04;;;;;;;2.13;2.03;;;19.40;99.90;;;;;;5023518;28;20524;-27
2021/07/24 09:04:37;;;;;;;2.40;2.20;;;19.40;99.90;;;;;;5024047;28;20450;-27
2021/07/24 09:07:11;;;;;;;2.37;2.17;;;19.30;99.90;;;;;;5023963;28;20481;-27
2021/07/24 09:09:44;;;;;;;3.83;2.50;;;19.30;99.90;;;;;;5024261;28;20455;-27
2021/07/24 09:12:16;;;;;;;2.40;2.20;;;19.30;99.90;;;;;;5024082;28;21099;-27
2021/07/24 09:14:49;;;;;;;2.47;2.27;;;19.30;99.90;;;;;;5023900;28;20911;-27
2021/07/24 09:17:22;;;;;;;2.50;2.10;;;19.20;99.90;;;;;;5021634;28;20815;-27
2021/07/24 09:19:54;;;;;;;3.00;2.40;;;19.20;99.90;;;;;;5012939;28;20493;-27
2021/07/24 09:22:29;;;;;;;2.73;2.20;;;19.10;99.90;;;;;;5023058;28;20488;-27
2021/07/24 09:25:12;;;;;;;2.50;2.30;;;19.10;99.90;;;;;;5015394;28;20457;-27
2021/07/24 09:27:44;;;;;;;2.40;2.20;;;19.00;99.90;;;;;;5019636;28;20466;-27
2021/07/24 09:30:36;;;;;;;2.70;2.23;;;18.90;99.90;;;;;;5012050;28;20454;-27
2021/07/24 09:33:08;;;;;;;2.40;2.20;;;19.00;99.90;;;;;;5012875;28;20482;-27
2021/07/24 09:35:40;;;;;;;2.40;2.20;;;19.00;99.90;;;;;;5007859;28;20430;-27
2021/07/24 09:38:17;;;;;;;3.23;2.80;;;19.00;99.90;;;;;;5018777;28;20454;-27
2021/07/24 09:40:48;;;;;;;2.43;1.97;;;19.00;99.90;;;;;;5005755;28;20539;-27
2021/07/24 09:43:35;;;;;;;5.90;2.37;;;18.90;99.90;;;;;;5010027;28;20502;-27
2021/07/24 09:46:15;;;;;;;2.47;1.80;;;18.90;99.90;;;;;;5019572;28;20474;-27
2021/07/24 09:48:48;;;;;;;2.60;2.40;;;18.90;99.90;;;;;;5004643;28;20467;-27
2021/07/24 09:51:33;;;;;;;2.60;2.40;;;18.90;99.90;;;;;;5004451;28;20500;-27
2021/07/24 09:54:05;;;;;;;3.70;1.90;;;18.80;99.90;;;;;;5012471;28;20506;-27
2021/07/24 09:56:44;;;;;;;3.50;2.40;;;18.80;99.90;;;;;;5004546;28;20483;-27
2021/07/24 09:59:19;;;;;;;2.73;2.17;;;18.80;99.90;;;;;;5010406;28;20486;-27
2021/07/24 10:01:59;;;;;;;2.93;2.70;;;18.90;99.90;;;;;;5015224;28;20446;-27
2021/07/24 10:04:32;;;;;;;2.17;1.97;;;18.80;99.90;;;;;;5009828;28;20727;-27
2021/07/24 10:07:05;;;;;;;5.97;2.27;;;18.70;99.90;;;;;;5013164;28;20465;-27
2021/07/24 10:09:37;;;;;;;2.17;1.97;;;18.70;99.90;;;;;;5023460;28;20536;-27
2021/07/24 10:12:13;;;;;;;2.93;2.37;;;18.50;99.90;;;;;;5021957;28;20485;-27
2021/07/24 10:14:45;;;;;;;2.40;2.13;;;18.50;99.90;;;;;;5022064;28;20449;-26
2021/07/24 10:17:19;;;;;;;2.30;2.10;;;18.50;99.90;;;;;;5018477;28;20473;-26
2021/07/24 10:19:50;;;;;;;2.53;1.97;;;18.40;99.90;;;;;;5023198;28;20496;-26
2021/07/24 10:22:22;;;;;;;3.03;1.93;;;18.50;99.90;;;;;;5021884;28;20469;-26
2021/07/24 10:24:54;;;;;;;2.37;2.13;;;18.40;99.90;;;;;;5022903;28;20435;-26
2021/07/24 10:27:28;;;;;;;2.73;2.03;;;18.40;99.90;;;;;;5012420;28;20812;-27
2021/07/24 10:30:03;;;;;;;2.30;2.10;;;18.30;99.90;;;;;;5021145;28;20477;-27
2021/07/24 10:32:39;;;;;;;2.27;2.07;;;18.30;99.90;;;;;;5010204;28;20477;-27
2021/07/24 10:35:11;;;;;;;3.10;2.07;;;18.30;99.90;;;;;;5022332;28;20839;-27
2021/07/24 10:37:44;;;;;;;3.00;2.20;;;18.20;99.90;;;;;;5017831;28;20459;-27
2021/07/24 10:40:36;;;;;;;2.90;2.60;;;18.20;99.90;;;;;;5015123;28;22242;-27
2021/07/24 10:43:07;;;;;;;3.00;2.80;;;18.10;99.90;;;;;;5007851;28;20514;-27
2021/07/24 10:45:54;;;;;;;2.70;2.50;;;18.10;99.90;;;;;;5021266;28;20454;-27
2021/07/24 10:48:27;;;;;;;2.57;2.37;;;18.10;99.90;;;;;;5022772;28;20565;-27
2021/07/24 10:51:18;;;;;;;2.73;2.53;;;18.00;99.90;;;;;;5003802;28;20478;-27
2021/07/24 10:54:07;;;;;;;2.73;1.93;;;17.90;99.90;;;;;;5011064;28;20450;-27
2021/07/24 10:56:41;;;;;;;2.20;1.97;;;17.90;99.90;;;;;;5007884;28;20486;-27
2021/07/24 10:59:24;;;;;;;2.23;2.03;;;17.90;99.90;;;;;;5020934;28;20471;-27
2021/07/24 11:01:58;;;;;;;2.67;2.37;;;17.90;99.90;;;;;;5022139;28;20629;-27
2021/07/24 11:04:46;;;;;;;2.60;2.40;;;17.90;99.90;;;;;;5010205;28;20541;-27
2021/07/24 11:07:43;;;;;;;2.37;2.17;;;17.80;99.90;;;;;;5002854;28;20509;-27
2021/07/24 11:10:15;;;;;;;2.17;2.07;;;17.80;99.90;;;;;;5013903;28;20859;-27
2021/07/24 11:12:47;;;;;;;3.13;2.53;;;17.70;99.90;;;;;;5021130;28;20485;-27
2021/07/24 11:15:20;;;;;;;2.70;2.50;;;17.80;99.90;;;;;;5019235;28;20494;-27
2021/07/24 11:18:24;;;;;;;2.00;1.80;;;17.80;99.90;;;;;;5020371;28;20457;-27
2021/07/24 11:20:58;;;;;;;2.30;2.10;;;17.70;99.90;;;;;;5021210;28;21012;-28
2021/07/24 11:23:29;;;;;;;2.77;2.57;;;17.70;99.90;;;;;;5022143;28;20545;-27
2021/07/24 11:26:03;;;;;;;3.10;2.80;;;17.60;99.90;;;;;;5014253;28;20495;-27
2021/07/24 11:28:34;;;;;;;2.50;2.10;;;17.60;99.90;;;;;;5003061;28;20455;-27
2021/07/24 11:31:07;;;;;;;2.83;2.60;;;17.60;99.90;;;;;;5019157;28;20529;-27
2021/07/24 11:33:42;;;;;;;3.20;2.50;;;17.60;99.90;;;;;;5010704;28;20516;-26
2021/07/24 11:36:16;;;;;;;2.37;2.10;;;17.60;99.90;;;;;;5019180;28;20469;-27
2021/07/24 11:38:47;;;;;;;2.50;2.23;;;17.50;99.90;;;;;;5019303;28;20483;-26
2021/07/24 11:41:18;;;;;;;2.63;2.37;;;17.50;99.90;;;;;;5014151;28;20482;-26
2021/07/24 11:44:26;;;;;;;2.37;2.17;;;17.50;99.90;;;;;;5021595;28;20497;-26
2021/07/24 11:46:59;;;;;;;2.27;2.07;;;17.50;99.90;;;;;;5018577;28;20458;-26
2021/07/24 11:49:30;;;;;;;2.33;2.13;;;17.40;99.90;;;;;;5021956;28;20596;-26
2021/07/24 11:52:04;;;;;;;2.53;2.13;;;17.40;99.90;;;;;;5021634;28;20483;-26
2021/07/24 11:54:35;;;;;;;2.30;2.10;;;17.40;99.90;;;;;;5024151;28;20466;-27
2021/07/24 11:57:08;;;;;;;2.73;2.53;;;17.30;99.90;;;;;;5019119;28;20542;-33
2021/07/24 11:59:43;;;;;;;2.87;2.10;;;17.30;99.90;;;;;;5022094;28;20482;-26
2021/07/24 12:02:21;;;;;;;2.60;2.40;;;17.20;99.90;;;;;;5025177;28;20454;-26
2021/07/24 12:04:53;;;;;;;3.10;2.20;;;17.20;99.90;;;;;;5023694;28;20556;-26
2021/07/24 12:07:27;;;;;;;2.83;2.40;;;17.10;99.90;;;;;;5005466;28;20475;-26
2021/07/24 12:09:58;;;;;;;3.33;2.80;;;17.10;99.90;;;;;;5017117;28;20465;-27
2021/07/24 12:12:29;;;;;;;3.07;2.77;;;16.90;99.90;;;;;;5008664;28;20624;-27
2021/07/24 12:15:06;;;;;;;2.40;2.20;;;16.90;99.90;;;;;;5022178;28;20466;-26
2021/07/24 12:17:40;;;;;;;3.50;2.77;;;16.90;99.90;;;;;;5019333;28;20449;-26
2021/07/24 12:20:14;;;;;;;3.00;2.80;;;16.90;99.90;;;;;;5018161;28;20486;-26
2021/07/24 12:22:47;;;;;;;2.73;2.47;;;16.90;99.90;;;;;;5015695;28;20511;-26
2021/07/24 12:25:20;;;;;;;3.50;3.20;;;16.90;99.90;;;;;;5006187;28;20810;-26
2021/07/24 12:27:51;;;;;;;2.23;1.93;;;16.80;99.90;;;;;;5022774;28;20453;-26
2021/07/24 12:30:29;;;;;;;3.17;2.60;;;16.70;99.90;;;;;;5019682;28;20458;-26
2021/07/24 12:33:00;;;;;;;3.00;2.70;;;16.70;99.90;;;;;;5018066;28;20514;-26
2021/07/24 12:35:31;;;;;;;3.23;2.30;;;16.70;99.90;;;;;;5015800;28;20509;-26
2021/07/24 12:38:06;;;;;;;2.60;2.40;;;16.70;99.90;;;;;;5023352;28;20449;-26
2021/07/24 12:40:37;;;;;;;3.20;2.87;;;16.70;99.90;;;;;;5021731;28;20552;-26
2021/07/24 12:43:14;;;;;;;2.80;2.60;;;16.70;99.90;;;;;;5010975;28;20494;-26
2021/07/24 12:45:45;;;;;;;2.70;2.40;;;16.70;99.90;;;;;;5019417;28;20513;-26
2021/07/24 12:48:19;;;;;;;4.20;2.83;;;16.50;99.90;;;;;;5006958;28;20482;-26
2021/07/24 12:51:09;;;;;;;3.60;3.30;;;16.60;99.90;;;;;;5007365;28;20455;-27
2021/07/24 12:53:42;;;;;;;3.57;2.83;;;16.50;99.90;;;;;;5006041;28;20451;-27
2021/07/24 12:56:13;;;;;;;2.87;2.67;;;16.40;99.90;;;;;;5012169;28;20903;-26
2021/07/24 12:58:44;;;;;;;3.23;2.77;;;16.40;99.90;;;;;;5019445;28;20446;-27
2021/07/24 13:01:17;;;;;;;2.70;2.50;;;16.40;99.90;;;;;;5024227;28;20560;-27
2021/07/24 13:03:48;;;;;;;3.90;3.00;;;16.40;99.90;;;;;;5025113;28;20462;-26
2021/07/24 13:06:19;;;;;;;3.00;2.63;;;16.50;99.90;;;;;;5021324;28;20454;-27
2021/07/24 13:08:52;;;;;;;2.97;2.77;;;16.50;99.90;;;;;;5019206;28;20462;-26
2021/07/24 13:11:23;;;;;;;4.00;2.63;;;16.50;99.90;;;;;;5006889;28;20892;-27
2021/07/24 13:13:54;;;;;;;2.40;2.20;;;16.50;99.90;;;;;;5015618;28;20454;-27
2021/07/24 13:16:28;;;;;;;3.67;2.80;;;16.50;99.90;;;;;;5024239;28;20624;-27
2021/07/24 13:19:00;;;;;;;3.20;2.30;;;16.50;99.90;;;;;;5014507;28;20521;-26